createdAt,value
2022-11-27T00:00:47.998Z,101077.03
2022-11-27T00:03:51.683Z,101075.78
2022-11-27T00:06:54.850Z,101070.41
2022-11-27T00:09:58.075Z,101070.97
2022-11-27T00:13:01.031Z,101068.13
2022-11-27T00:16:04.982Z,101070.34
2022-11-27T00:19:08.060Z,101072.53
2022-11-27T00:22:11.333Z,101069.94
2022-11-27T00:25:14.564Z,101069.75
2022-11-27T00:28:17.779Z,101066.06
2022-11-27T00:31:29.946Z,101058.59
2022-11-27T00:34:33.252Z,101061.50
2022-11-27T00:37:36.449Z,101061.63
2022-11-27T00:40:39.703Z,101059.94
2022-11-27T00:43:45.091Z,101064.25
2022-11-27T00:46:48.842Z,101055.28
2022-11-27T00:49:51.791Z,101054.28
2022-11-27T00:52:55.380Z,101062.56
2022-11-27T00:55:58.746Z,101060.28
2022-11-27T00:59:02.095Z,101059.88
2022-11-27T01:02:05.103Z,101055.81
2022-11-27T01:05:08.614Z,101067.44
2022-11-27T01:08:11.472Z,101067.25
2022-11-27T01:11:19.608Z,101065.06
2022-11-27T01:14:22.581Z,101068.13
2022-11-27T01:17:26.068Z,101065.94
2022-11-27T01:20:28.992Z,101068.03
2022-11-27T01:23:32.675Z,101075.31
2022-11-27T01:26:35.759Z,101077.87
2022-11-27T01:29:39.161Z,101088.03
2022-11-27T01:32:42.132Z,101078.38
2022-11-27T01:35:54.641Z,101069.66
2022-11-27T01:38:57.897Z,101079.09
2022-11-27T01:42:01.051Z,101074.00
2022-11-27T01:45:04.697Z,101076.00
2022-11-27T01:48:12.063Z,101079.28
2022-11-27T01:51:16.053Z,101079.09
2022-11-27T01:54:22.104Z,101085.06
2022-11-27T01:57:33.401Z,101086.94
2022-11-27T02:00:37.198Z,101086.44
2022-11-27T02:03:40.373Z,101091.31
2022-11-27T02:06:43.790Z,101086.34
2022-11-27T02:09:46.777Z,101086.62
2022-11-27T02:13:10.273Z,101089.62
2022-11-27T02:16:25.382Z,101079.28
2022-11-27T02:19:34.695Z,101088.03
2022-11-27T02:23:00.232Z,101087.72
2022-11-27T02:26:36.305Z,101077.50
2022-11-27T02:29:41.058Z,101076.91
2022-11-27T02:32:49.791Z,101076.50
2022-11-27T02:36:00.718Z,101077.47
2022-11-27T02:39:08.781Z,101086.03
2022-11-27T02:42:16.308Z,101087.13
2022-11-27T02:45:25.171Z,101098.25
2022-11-27T02:48:33.813Z,101092.66
2022-11-27T02:51:42.183Z,101085.25
2022-11-27T02:54:46.773Z,101093.19
2022-11-27T02:57:51.687Z,101090.41
2022-11-27T03:00:55.993Z,101102.94
2022-11-27T03:04:00.479Z,101096.75
2022-11-27T03:07:11.197Z,101106.53
2022-11-27T03:10:20.215Z,101112.44
2022-11-27T03:13:23.512Z,101099.41
2022-11-27T03:16:39.367Z,101101.81
2022-11-27T03:19:52.959Z,101100.63
2022-11-27T03:22:56.730Z,101103.97
2022-11-27T03:25:59.638Z,101110.22
2022-11-27T03:29:05.533Z,101105.97
2022-11-27T03:32:09.160Z,101114.81
2022-11-27T03:35:13.393Z,101110.03
2022-11-27T03:38:16.285Z,101107.94
2022-11-27T03:41:58.906Z,101116.94
2022-11-27T03:45:10.472Z,101110.94
2022-11-27T03:48:21.128Z,101106.16
2022-11-27T03:51:45.870Z,101109.25
2022-11-27T03:54:58.435Z,101106.66
2022-11-27T03:58:21.410Z,101103.59
2022-11-27T04:01:25.487Z,101100.09
2022-11-27T04:04:28.767Z,101101.59
2022-11-27T04:07:31.832Z,101103.84
2022-11-27T04:10:35.051Z,101103.41
2022-11-27T04:13:38.220Z,101103.47
2022-11-27T04:16:41.758Z,101103.88
2022-11-27T04:19:46.268Z,101106.62
2022-11-27T04:22:49.467Z,101113.72
2022-11-27T04:25:53.235Z,101110.25
2022-11-27T04:28:56.539Z,101106.97
2022-11-27T04:32:00.051Z,101102.13
2022-11-27T04:35:03.320Z,101097.87
2022-11-27T04:38:06.168Z,101101.03
2022-11-27T04:41:09.329Z,101103.34
2022-11-27T04:44:13.485Z,101098.97
2022-11-27T04:47:17.222Z,101100.44
2022-11-27T04:50:20.071Z,101098.97
2022-11-27T04:53:23.318Z,101084.25
2022-11-27T04:56:26.112Z,101089.56
2022-11-27T04:59:29.496Z,101088.56
2022-11-27T05:02:34.062Z,101092.62
2022-11-27T05:05:38.879Z,101090.53
2022-11-27T05:08:42.188Z,101088.91
2022-11-27T05:11:46.574Z,101087.97
2022-11-27T05:14:49.642Z,101085.16
2022-11-27T05:17:52.763Z,101094.03
2022-11-27T05:20:57.778Z,101089.44
2022-11-27T05:24:00.942Z,101086.00
2022-11-27T05:27:04.057Z,101092.50
2022-11-27T05:30:07.939Z,101091.81
2022-11-27T05:33:10.935Z,101085.31
2022-11-27T05:36:14.097Z,101081.75
2022-11-27T05:39:17.030Z,101082.94
2022-11-27T05:42:20.354Z,101071.78
2022-11-27T05:45:23.323Z,101083.34
2022-11-27T05:48:27.359Z,101074.97
2022-11-27T05:51:30.281Z,101088.06
2022-11-27T05:54:34.515Z,101095.25
2022-11-27T05:57:37.433Z,101085.63
2022-11-27T06:00:40.621Z,101091.53
2022-11-27T06:03:43.843Z,101094.25
2022-11-27T06:06:46.773Z,101099.97
2022-11-27T06:09:50.188Z,101097.41
2022-11-27T06:12:53.079Z,101098.66
2022-11-27T06:15:56.551Z,101095.00
2022-11-27T06:18:59.455Z,101093.53
2022-11-27T06:22:02.640Z,101098.50
2022-11-27T06:25:06.236Z,101096.12
2022-11-27T06:28:09.666Z,101099.22
2022-11-27T06:31:18.616Z,101104.19
2022-11-27T06:34:21.865Z,101103.09
2022-11-27T06:37:26.130Z,101111.34
2022-11-27T06:40:29.767Z,101108.78
2022-11-27T06:43:33.900Z,101110.50
2022-11-27T06:46:37.311Z,101095.38
2022-11-27T06:49:40.168Z,101096.41
2022-11-27T06:52:43.378Z,101100.66
2022-11-27T06:55:46.339Z,101093.31
2022-11-27T06:58:59.070Z,101088.66
2022-11-27T07:02:01.999Z,101092.50
2022-11-27T07:05:07.183Z,101097.00
2022-11-27T07:08:10.973Z,101100.00
2022-11-27T07:11:19.744Z,101099.78
2022-11-27T07:14:22.677Z,101103.66
2022-11-27T07:17:25.822Z,101096.22
2022-11-27T07:20:28.759Z,101102.94
2022-11-27T07:23:32.282Z,101102.63
2022-11-27T07:26:35.183Z,101099.16
2022-11-27T07:29:38.310Z,101093.00
2022-11-27T07:32:41.289Z,101097.69
2022-11-27T07:35:45.001Z,101099.88
2022-11-27T07:38:48.236Z,101105.66
2022-11-27T07:41:51.634Z,101092.50
2022-11-27T07:44:54.817Z,101099.78
2022-11-27T07:47:58.312Z,101105.66
2022-11-27T07:51:01.530Z,101112.13
2022-11-27T07:54:04.807Z,101115.37
2022-11-27T07:57:08.099Z,101119.16
2022-11-27T08:00:12.027Z,101120.94
2022-11-27T08:03:16.706Z,101116.47
2022-11-27T08:06:22.021Z,101118.28
2022-11-27T08:09:25.251Z,101131.81
2022-11-27T08:12:28.247Z,101129.03
2022-11-27T08:15:31.912Z,101136.69
2022-11-27T08:18:34.882Z,101140.97
2022-11-27T08:21:38.129Z,101131.41
2022-11-27T08:24:42.934Z,101136.19
2022-11-27T08:27:48.566Z,101138.28
2022-11-27T08:31:01.747Z,101142.66
2022-11-27T08:34:05.053Z,101145.13
2022-11-27T08:37:08.319Z,101147.41
2022-11-27T08:40:12.612Z,101156.28
2022-11-27T08:43:15.627Z,101151.84
2022-11-27T08:46:18.844Z,101155.59
2022-11-27T08:49:21.783Z,101164.44
2022-11-27T08:52:24.923Z,101173.28
2022-11-27T08:55:27.837Z,101176.50
2022-11-27T08:58:31.557Z,101165.66
2022-11-27T09:01:34.751Z,101173.44
2022-11-27T09:04:38.630Z,101166.91
2022-11-27T09:07:42.359Z,101167.28
2022-11-27T09:10:45.543Z,101171.72
2022-11-27T09:13:49.155Z,101172.78
2022-11-27T09:16:53.731Z,101177.69
2022-11-27T09:19:56.645Z,101175.78
2022-11-27T09:23:02.586Z,101181.03
2022-11-27T09:26:08.640Z,101184.44
2022-11-27T09:29:11.944Z,101179.28
2022-11-27T09:32:14.928Z,101174.12
2022-11-27T09:35:18.302Z,101164.47
2022-11-27T09:38:21.254Z,101167.34
2022-11-27T09:41:33.895Z,101165.56
2022-11-27T09:44:46.539Z,101163.09
2022-11-27T09:48:05.924Z,101167.34
2022-11-27T09:51:18.888Z,101163.78
2022-11-27T09:54:33.173Z,101162.19
2022-11-27T09:57:38.342Z,101162.75
2022-11-27T10:00:44.187Z,101162.37
2022-11-27T10:03:47.875Z,101160.91
2022-11-27T10:07:14.199Z,101148.84
2022-11-27T10:10:32.525Z,101145.75
2022-11-27T10:13:45.509Z,101138.59
2022-11-27T10:16:57.044Z,101146.84
2022-11-27T10:20:29.056Z,101141.87
2022-11-27T10:23:51.803Z,101141.16
2022-11-27T10:26:55.568Z,101142.25
2022-11-27T10:30:00.555Z,101135.88
2022-11-27T10:33:05.049Z,101136.19
2022-11-27T10:36:15.244Z,101129.16
2022-11-27T10:39:38.154Z,101129.16
2022-11-27T10:42:48.047Z,101125.25
2022-11-27T10:46:16.053Z,101121.28
2022-11-27T10:49:20.819Z,101112.44
2022-11-27T10:52:24.177Z,101101.66
2022-11-27T10:56:12.146Z,101101.53
2022-11-27T11:00:01.066Z,101088.53
2022-11-27T11:03:06.032Z,101085.91
2022-11-27T11:06:21.913Z,101078.09
2022-11-27T11:09:29.347Z,101080.16
2022-11-27T11:12:32.369Z,101074.97
2022-11-27T11:15:51.584Z,101067.47
2022-11-27T11:18:58.503Z,101067.75
2022-11-27T11:22:14.848Z,101064.28
2022-11-27T11:25:20.062Z,101066.69
2022-11-27T11:28:25.157Z,101051.81
2022-11-27T11:31:38.994Z,101055.00
2022-11-27T11:34:44.659Z,101052.38
2022-11-27T11:37:47.655Z,101045.28
2022-11-27T11:41:08.661Z,101044.91
2022-11-27T11:44:27.228Z,101045.44
2022-11-27T11:47:34.555Z,101044.66
2022-11-27T11:50:57.335Z,101049.69
2022-11-27T11:54:12.985Z,101047.78
2022-11-27T11:57:41.871Z,101042.41
2022-11-27T12:01:19.425Z,101041.06
2022-11-27T12:04:32.445Z,101044.31
2022-11-27T12:08:12.923Z,101042.41
2022-11-27T12:11:19.227Z,101035.91
2022-11-27T12:14:48.070Z,101025.53
2022-11-27T12:18:01.055Z,101018.50
2022-11-27T12:21:37.505Z,101020.44
2022-11-27T12:24:52.852Z,101024.19
2022-11-27T12:28:04.143Z,101019.97
2022-11-27T12:31:10.493Z,101011.78
2022-11-27T12:34:38.635Z,101009.44
2022-11-27T12:37:56.671Z,101010.28
2022-11-27T12:41:23.197Z,101008.38
2022-11-27T12:44:34.296Z,101007.13
2022-11-27T12:47:40.117Z,100998.44
2022-11-27T12:50:51.279Z,101001.59
2022-11-27T12:54:04.666Z,101004.94
2022-11-27T12:57:17.985Z,101002.69
2022-11-27T13:00:24.023Z,100996.50
2022-11-27T13:03:39.730Z,100997.78
2022-11-27T13:06:54.994Z,100990.34
2022-11-27T13:10:04.233Z,100988.97
2022-11-27T13:13:14.233Z,100994.31
2022-11-27T13:16:25.619Z,100991.12
2022-11-27T13:19:34.637Z,100987.97
2022-11-27T13:22:39.592Z,100985.44
2022-11-27T13:25:51.927Z,100977.00
2022-11-27T13:28:59.477Z,100981.34
2022-11-27T13:32:03.663Z,100978.97
2022-11-27T13:35:20.971Z,100979.94
2022-11-27T13:38:26.072Z,100974.88
2022-11-27T13:41:40.353Z,100979.78
2022-11-27T13:44:45.383Z,100980.84
2022-11-27T13:47:49.953Z,100982.94
2022-11-27T13:50:53.581Z,100976.13
2022-11-27T13:54:14.762Z,100985.63
2022-11-27T13:57:19.058Z,100978.31
2022-11-27T14:00:39.341Z,100981.50
2022-11-27T14:03:43.098Z,100986.88
2022-11-27T14:06:52.877Z,100984.75
2022-11-27T14:10:07.521Z,100984.44
2022-11-27T14:13:12.344Z,100987.13
2022-11-27T14:16:30.920Z,100984.91
2022-11-27T14:20:00.641Z,100984.62
2022-11-27T14:23:13.290Z,100986.53
2022-11-27T14:26:16.714Z,100983.34
2022-11-27T14:29:21.421Z,100984.44
2022-11-27T14:32:35.475Z,100981.94
2022-11-27T14:35:40.685Z,100986.88
2022-11-27T14:38:46.818Z,100978.94
2022-11-27T14:42:04.628Z,100981.66
2022-11-27T14:45:14.064Z,100979.94
2022-11-27T14:48:24.339Z,100986.09
2022-11-27T14:51:29.688Z,100986.06
2022-11-27T14:54:35.849Z,100992.25
2022-11-27T14:57:38.864Z,100998.41
2022-11-27T15:00:58.938Z,100996.34
2022-11-27T15:04:07.512Z,100997.28
2022-11-27T15:07:26.431Z,101002.94
2022-11-27T15:10:35.947Z,101003.78
2022-11-27T15:13:40.159Z,101007.81
2022-11-27T15:16:50.139Z,101001.34
2022-11-27T15:19:54.563Z,101001.03
2022-11-27T15:22:59.561Z,100996.13
2022-11-27T15:26:02.729Z,100999.31
2022-11-27T15:29:36.906Z,101004.72
2022-11-27T15:32:53.742Z,101011.19
2022-11-27T15:36:18.049Z,101007.53
2022-11-27T15:39:28.764Z,100997.66
2022-11-27T15:42:32.079Z,100994.62
2022-11-27T15:45:36.714Z,101000.03
2022-11-27T15:48:40.129Z,101006.31
2022-11-27T15:51:45.543Z,100999.53
2022-11-27T15:54:51.447Z,100992.41
2022-11-27T15:57:56.025Z,100990.66
2022-11-27T16:00:59.551Z,100990.03
2022-11-27T16:04:04.008Z,100992.69
2022-11-27T16:07:08.902Z,100991.03
2022-11-27T16:10:12.780Z,100993.25
2022-11-27T16:13:15.809Z,100993.59
2022-11-27T16:16:19.485Z,100981.59
2022-11-27T16:19:22.752Z,100982.87
2022-11-27T16:22:26.175Z,100980.69
2022-11-27T16:25:29.450Z,100981.47
2022-11-27T16:28:33.246Z,100974.41
2022-11-27T16:31:37.167Z,100972.50
2022-11-27T16:34:41.229Z,100969.31
2022-11-27T16:37:45.798Z,100967.41
2022-11-27T16:40:50.474Z,100974.06
2022-11-27T16:43:56.297Z,100963.94
2022-11-27T16:47:00.549Z,100966.00
2022-11-27T16:50:04.885Z,100967.41
2022-11-27T16:53:09.062Z,100963.81
2022-11-27T16:56:15.052Z,100969.19
2022-11-27T16:59:18.631Z,100960.94
2022-11-27T17:02:22.062Z,100962.81
2022-11-27T17:05:25.667Z,100959.03
2022-11-27T17:08:29.524Z,100949.06
2022-11-27T17:11:35.888Z,100944.16
2022-11-27T17:14:40.432Z,100952.72
2022-11-27T17:17:46.789Z,100943.69
2022-11-27T17:20:51.082Z,100944.47
2022-11-27T17:23:56.236Z,100935.59
2022-11-27T17:27:00.031Z,100929.31
2022-11-27T17:30:06.099Z,100926.09
2022-11-27T17:33:09.608Z,100918.19
2022-11-27T17:36:13.441Z,100916.91
2022-11-27T17:39:17.154Z,100913.91
2022-11-27T17:42:22.948Z,100912.31
2022-11-27T17:45:26.896Z,100902.16
2022-11-27T17:48:30.614Z,100903.28
2022-11-27T17:51:36.642Z,100903.91
2022-11-27T17:54:40.233Z,100896.88
2022-11-27T17:57:43.591Z,100900.78
2022-11-27T18:00:47.713Z,100901.75
2022-11-27T18:03:55.156Z,100893.91
2022-11-27T18:07:02.387Z,100891.97
2022-11-27T18:10:06.457Z,100898.91
2022-11-27T18:13:09.734Z,100894.97
2022-11-27T18:16:19.188Z,100900.47
2022-11-27T18:19:22.588Z,100902.13
2022-11-27T18:22:26.403Z,100895.97
2022-11-27T18:25:29.900Z,100894.47
2022-11-27T18:28:33.906Z,100891.31
2022-11-27T18:31:41.198Z,100898.44
2022-11-27T18:34:46.475Z,100897.38
2022-11-27T18:37:49.919Z,100888.00
2022-11-27T18:40:53.136Z,100894.69
2022-11-27T18:43:56.586Z,100893.75
2022-11-27T18:47:00.374Z,100888.00
2022-11-27T18:50:05.975Z,100879.47
2022-11-27T18:53:10.944Z,100881.03
2022-11-27T18:56:18.433Z,100884.22
2022-11-27T18:59:23.447Z,100887.34
2022-11-27T19:02:29.609Z,100895.50
2022-11-27T19:05:36.343Z,100888.84
2022-11-27T19:08:39.447Z,100891.84
2022-11-27T19:11:43.242Z,100897.84
2022-11-27T19:14:47.199Z,100899.84
2022-11-27T19:17:51.057Z,100886.50
2022-11-27T19:20:55.814Z,100896.84
2022-11-27T19:24:01.671Z,100899.06
2022-11-27T19:27:05.159Z,100897.59
2022-11-27T19:30:09.583Z,100892.22
2022-11-27T19:33:13.331Z,100895.00
2022-11-27T19:36:17.992Z,100892.84
2022-11-27T19:39:22.509Z,100894.75
2022-11-27T19:42:26.236Z,100880.91
2022-11-27T19:45:30.669Z,100873.47
2022-11-27T19:48:35.536Z,100872.06
2022-11-27T19:51:39.655Z,100876.94
2022-11-27T19:54:44.544Z,100878.72
2022-11-27T19:57:48.167Z,100871.19
2022-11-27T20:00:52.675Z,100877.34
2022-11-27T20:03:56.773Z,100871.97
2022-11-27T20:07:01.501Z,100862.62
2022-11-27T20:10:06.199Z,100865.03
2022-11-27T20:13:09.310Z,100862.62
2022-11-27T20:16:15.356Z,100849.41
2022-11-27T20:19:19.030Z,100846.94
2022-11-27T20:22:23.082Z,100857.97
2022-11-27T20:25:27.050Z,100859.44
2022-11-27T20:28:30.875Z,100863.50
2022-11-27T20:31:36.528Z,100865.38
2022-11-27T20:34:40.627Z,100865.13
2022-11-27T20:37:44.340Z,100866.38
2022-11-27T20:40:48.832Z,100863.87
2022-11-27T20:43:57.725Z,100858.75
2022-11-27T20:47:01.590Z,100864.63
2022-11-27T20:50:06.813Z,100867.25
2022-11-27T20:53:10.431Z,100861.75
2022-11-27T20:56:16.686Z,100863.44
2022-11-27T20:59:20.176Z,100858.28
2022-11-27T21:02:24.525Z,100856.28
2022-11-27T21:05:29.736Z,100850.47
2022-11-27T21:08:32.829Z,100848.91
2022-11-27T21:11:37.490Z,100847.22
2022-11-27T21:14:44.306Z,100844.47
2022-11-27T21:17:48.069Z,100841.88
2022-11-27T21:20:51.391Z,100846.97
2022-11-27T21:23:55.569Z,100841.66
2022-11-27T21:26:59.270Z,100847.59
2022-11-27T21:30:02.575Z,100842.91
2022-11-27T21:33:05.826Z,100841.84
2022-11-27T21:36:09.564Z,100845.69
2022-11-27T21:39:14.430Z,100840.78
2022-11-27T21:42:18.027Z,100847.16
2022-11-27T21:45:20.904Z,100833.09
2022-11-27T21:48:24.184Z,100838.00
2022-11-27T21:51:28.197Z,100842.44
2022-11-27T21:54:31.929Z,100839.38
2022-11-27T21:57:34.808Z,100841.28
2022-11-27T22:00:38.175Z,100838.91
2022-11-27T22:03:43.042Z,100835.28
2022-11-27T22:06:47.228Z,100834.84
2022-11-27T22:09:50.403Z,100840.69
2022-11-27T22:12:53.444Z,100840.56
2022-11-27T22:15:57.144Z,100837.09
2022-11-27T22:19:03.327Z,100835.34
2022-11-27T22:22:06.819Z,100829.84
2022-11-27T22:25:09.932Z,100832.88
2022-11-27T22:28:13.518Z,100832.72
2022-11-27T22:31:21.738Z,100830.53
2022-11-27T22:34:25.357Z,100832.59
2022-11-27T22:37:28.552Z,100828.00
2022-11-27T22:40:32.529Z,100827.88
2022-11-27T22:43:36.130Z,100824.06
2022-11-27T22:46:41.324Z,100822.00
2022-11-27T22:49:44.831Z,100816.22
2022-11-27T22:52:48.238Z,100810.84
2022-11-27T22:55:51.633Z,100802.59
2022-11-27T22:59:17.421Z,100802.16
2022-11-27T23:02:22.663Z,100793.91
2022-11-27T23:05:26.537Z,100790.13
2022-11-27T23:08:29.491Z,100787.59
2022-11-27T23:11:32.816Z,100777.94
2022-11-27T23:14:35.889Z,100773.34
2022-11-27T23:17:39.157Z,100767.19
2022-11-27T23:20:43.068Z,100753.25
2022-11-27T23:23:47.226Z,100759.41
2022-11-27T23:26:50.255Z,100754.03
2022-11-27T23:29:53.941Z,100753.75
2022-11-27T23:32:58.370Z,100749.44
2022-11-27T23:36:03.504Z,100751.53
2022-11-27T23:39:09.305Z,100751.34
2022-11-27T23:42:12.567Z,100754.22
2022-11-27T23:45:16.223Z,100760.22
2022-11-27T23:48:20.619Z,100771.44
2022-11-27T23:51:26.062Z,100764.50
2022-11-27T23:54:29.160Z,100767.34
2022-11-27T23:57:32.465Z,100761.50
